Copper Queen, Arizona
Current Conditions -  °F | °C
As of 2:56 AM on Thursday 18 Dec 2014 (Local Time) from KDUG Reporting Station
Overcast Overcast  
Wind Chill: 42°   Ceiling: 4700
Heat Index: 42°   Visibility: 10mi
Dew Point: 40°   Wind: 0mph
Humidity: 92%   Direction: NA
Pressure: 30.13"   Gusts: NA
Location:  31.4799°N, 109.96°W
Report Text: KDUG 180956Z AUTO 00000KT 10SM OVC047 06/04 A3013 RMK AO2 RAB00E12 SLP178 P0001 T00560044
Loading
Personal Weather Stations






























Interactive Weather Map New forecast layout! Learn more

10-Day Weather Forecast

Advertisements
Track Severe Weather on mobile